Time;durP1;ratioP1;P1;durP2;ratioP2;P2;SDS_P1;SDS_P2;PMS_P1;PMS_P2;Temp;Humidity;BMP_temperature;BMP_pressure;BME280_temperature;BME280_humidity;BME280_pressure;Samples;Min_cycle;Max_cycle;Signal;HPM_P1;HPM_P2
2021/01/18 00:02:03;;;;;;;9.85;5.25;;;;;;;;;;6272601;22;20034;-75
2021/01/18 00:04:29;;;;;;;10.13;5.40;;;;;;;;;;6273381;22;20003;-75
2021/01/18 00:06:55;;;;;;;9.20;5.30;;;;;;;;;;6300261;22;20036;-74
2021/01/18 00:09:21;;;;;;;11.25;5.35;;;;;;;;;;6300687;22;20010;-75
2021/01/18 00:11:47;;;;;;;11.68;5.38;;;;;;;;;;6300289;22;20004;-75
2021/01/18 00:14:13;;;;;;;9.57;5.28;;;;;;;;;;6300299;22;20331;-75
2021/01/18 00:16:39;;;;;;;8.20;5.18;;;;;;;;;;6300996;22;20025;-75
2021/01/18 00:19:05;;;;;;;8.82;5.20;;;;;;;;;;6300859;22;20335;-74
2021/01/18 00:21:31;;;;;;;8.32;5.50;;;;;;;;;;6299775;22;19999;-75
2021/01/18 00:23:57;;;;;;;9.20;4.75;;;;;;;;;;6272618;22;19999;-74
2021/01/18 00:26:23;;;;;;;8.77;4.50;;;;;;;;;;6272778;22;20427;-74
2021/01/18 00:28:49;;;;;;;9.23;4.88;;;;;;;;;;6273112;22;20015;-75
2021/01/18 00:31:15;;;;;;;8.18;4.47;;;;;;;;;;6299617;22;20069;-75
2021/01/18 00:33:41;;;;;;;11.40;5.78;;;;;;;;;;6272638;22;20376;-74
2021/01/18 00:36:07;;;;;;;8.77;5.18;;;;;;;;;;6300690;22;20003;-74
2021/01/18 00:38:34;;;;;;;9.63;5.10;;;;;;;;;;6300121;22;20675;-75
2021/01/18 00:41:00;;;;;;;6.45;4.30;;;;;;;;;;6298534;22;20023;-75
2021/01/18 00:43:26;;;;;;;7.47;4.45;;;;;;;;;;6298054;22;20135;-74
2021/01/18 00:45:52;;;;;;;9.88;4.85;;;;;;;;;;6300127;22;20065;-75
2021/01/18 00:48:18;;;;;;;7.07;4.55;;;;;;;;;;6300043;22;20632;-74
2021/01/18 00:50:44;;;;;;;8.95;5.05;;;;;;;;;;6299843;22;19999;-73
2021/01/18 00:53:10;;;;;;;8.27;5.00;;;;;;;;;;6272697;22;20564;-74
2021/01/18 00:55:36;;;;;;;7.65;4.72;;;;;;;;;;6302422;22;20058;-75
2021/01/18 00:58:02;;;;;;;8.48;5.30;;;;;;;;;;6275578;22;20331;-74
2021/01/18 01:00:28;;;;;;;8.40;5.05;;;;;;;;;;6274815;22;20402;-75
2021/01/18 01:02:55;;;;;;;10.00;5.67;;;;;;;;;;6301341;22;20000;-74
2021/01/18 01:05:22;;;;;;;9.80;5.57;;;;;;;;;;6274795;22;20222;-74
2021/01/18 01:07:51;;;;;;;8.43;5.70;;;;;;;;;;6302042;22;20009;-75
2021/01/18 01:10:20;;;;;;;8.90;5.53;;;;;;;;;;6302323;22;20003;-75
2021/01/18 01:12:46;;;;;;;10.13;5.30;;;;;;;;;;6301865;22;20003;-74
2021/01/18 01:15:13;;;;;;;10.20;5.20;;;;;;;;;;6301952;22;20426;-74
2021/01/18 01:17:42;;;;;;;10.65;5.55;;;;;;;;;;6302126;22;20018;-74
2021/01/18 01:20:08;;;;;;;10.93;5.20;;;;;;;;;;6274329;22;20007;-75
2021/01/18 01:22:34;;;;;;;8.15;4.40;;;;;;;;;;6301518;22;20030;-74
2021/01/18 01:25:00;;;;;;;7.97;4.68;;;;;;;;;;6274284;22;20011;-74
2021/01/18 01:27:26;;;;;;;5.75;3.30;;;;;;;;;;6301976;22;19995;-74
2021/01/18 01:29:52;;;;;;;6.53;3.92;;;;;;;;;;6301692;22;20003;-74
2021/01/18 01:32:18;;;;;;;6.38;4.25;;;;;;;;;;6301467;22;20011;-75
2021/01/18 01:34:44;;;;;;;6.63;3.90;;;;;;;;;;6302014;22;20003;-74
2021/01/18 01:37:10;;;;;;;6.78;3.97;;;;;;;;;;6302354;22;20035;-74
2021/01/18 01:39:36;;;;;;;8.13;3.95;;;;;;;;;;6301840;22;20048;-73
2021/01/18 01:42:03;;;;;;;7.63;4.25;;;;;;;;;;6273463;22;20030;-74
2021/01/18 01:44:28;;;;;;;6.00;4.22;;;;;;;;;;6301611;22;20133;-74
2021/01/18 01:46:55;;;;;;;8.23;4.40;;;;;;;;;;6302085;22;20436;-73
2021/01/18 01:49:21;;;;;;;8.18;4.47;;;;;;;;;;6302190;22;20007;-73
2021/01/18 01:51:49;;;;;;;7.40;4.63;;;;;;;;;;6301978;22;20053;-74
2021/01/18 01:54:16;;;;;;;;;;;;;;;;;;6301945;22;20000;-75
2021/01/18 01:56:42;;;;;;;10.32;4.43;;;;;;;;;;6301474;22;19981;-74
2021/01/18 01:59:08;;;;;;;9.00;4.97;;;;;;;;;;6301729;22;20014;-74
2021/01/18 02:01:35;;;;;;;9.13;5.22;;;;;;;;;;6301567;22;20075;-74
2021/01/18 02:04:02;;;;;;;9.68;4.47;;;;;;;;;;6301685;22;20000;-74
2021/01/18 02:06:28;;;;;;;10.52;4.95;;;;;;;;;;6300795;22;19995;-74
2021/01/18 02:08:54;;;;;;;9.70;4.80;;;;;;;;;;6274120;22;20018;-74
2021/01/18 02:11:20;;;;;;;8.20;5.05;;;;;;;;;;6273038;22;19999;-75
2021/01/18 02:13:46;;;;;;;10.70;5.40;;;;;;;;;;6301550;22;19999;-74
2021/01/18 02:16:20;;;;;;;8.02;5.18;;;;;;;;;;6301270;22;20007;-74
2021/01/18 02:18:55;;;;;;;8.65;5.20;;;;;;;;;;6301601;22;20438;-74
2021/01/18 02:21:38;;;;;;;6.70;4.60;;;;;;;;;;6300697;22;20517;-74
2021/01/18 02:24:20;;;;;;;7.57;4.63;;;;;;;;;;6301587;22;20021;-74
2021/01/18 02:26:46;;;;;;;8.60;4.35;;;;;;;;;;6296841;22;20443;-74
2021/01/18 02:29:21;;;;;;;7.75;3.75;;;;;;;;;;6273639;22;20061;-73
2021/01/18 02:31:53;;;;;;;7.07;3.67;;;;;;;;;;6272573;22;20007;-75
2021/01/18 02:34:40;;;;;;;7.80;3.53;;;;;;;;;;6273772;22;20003;-75
2021/01/18 02:37:09;;;;;;;6.05;3.30;;;;;;;;;;6301398;22;19999;-75
2021/01/18 02:39:47;;;;;;;7.13;3.17;;;;;;;;;;6301130;22;19996;-74
2021/01/18 02:42:13;;;;;;;;;;;;;;;;;;6301450;22;20038;-74
2021/01/18 02:44:39;;;;;;;6.05;3.10;;;;;;;;;;6301785;22;19922;-74
2021/01/18 02:47:05;;;;;;;6.70;3.33;;;;;;;;;;6301896;22;19999;-74
2021/01/18 02:49:31;;;;;;;5.00;3.20;;;;;;;;;;6273985;22;20034;-74
2021/01/18 02:52:04;;;;;;;4.95;3.20;;;;;;;;;;6273580;22;20549;-75
2021/01/18 02:54:30;;;;;;;6.40;3.28;;;;;;;;;;6300938;22;19995;-74
2021/01/18 02:56:57;;;;;;;5.30;3.47;;;;;;;;;;6300989;22;19999;-74
2021/01/18 02:59:23;;;;;;;5.55;3.25;;;;;;;;;;6301080;22;20054;-74
2021/01/18 03:02:08;;;;;;;7.18;3.47;;;;;;;;;;6302271;22;20003;-75
2021/01/18 03:04:37;;;;;;;5.63;3.47;;;;;;;;;;6304460;22;19995;-75
2021/01/18 03:07:25;;;;;;;4.95;3.40;;;;;;;;;;6304452;22;19995;-75
2021/01/18 03:09:54;;;;;;;5.32;3.30;;;;;;;;;;6276831;22;20219;-74
2021/01/18 03:12:23;;;;;;;5.55;3.60;;;;;;;;;;6302830;22;20336;-74
2021/01/18 03:14:51;;;;;;;6.40;3.83;;;;;;;;;;6304418;22;19995;-74
2021/01/18 03:17:20;;;;;;;6.45;4.03;;;;;;;;;;6304091;22;20431;-74
2021/01/18 03:19:47;;;;;;;7.22;3.63;;;;;;;;;;6304344;22;20009;-75
2021/01/18 03:22:28;;;;;;;6.80;3.92;;;;;;;;;;6304178;22;20022;-74
2021/01/18 03:24:59;;;;;;;7.53;3.75;;;;;;;;;;6304387;22;20002;-74
2021/01/18 03:27:25;;;;;;;8.40;3.72;;;;;;;;;;6304692;22;20056;-74
2021/01/18 03:29:51;;;;;;;11.38;4.05;;;;;;;;;;6304436;22;20105;-73
2021/01/18 03:32:17;;;;;;;8.27;3.70;;;;;;;;;;6303698;22;20090;-74
2021/01/18 03:34:43;;;;;;;6.65;3.85;;;;;;;;;;6304228;22;20031;-75
2021/01/18 03:37:09;;;;;;;6.88;4.03;;;;;;;;;;6277121;22;20388;-75
2021/01/18 03:39:35;;;;;;;8.25;4.63;;;;;;;;;;6276719;22;20031;-74
2021/01/18 03:42:01;;;;;;;7.88;4.25;;;;;;;;;;6303899;22;20328;-74
2021/01/18 03:44:27;;;;;;;8.55;4.65;;;;;;;;;;6304053;22;20002;-75
2021/01/18 03:46:53;;;;;;;7.97;4.50;;;;;;;;;;6303908;22;19999;-74
2021/01/18 03:49:19;;;;;;;9.65;4.75;;;;;;;;;;6304019;22;20459;-74
2021/01/18 03:51:45;;;;;;;12.23;5.18;;;;;;;;;;6276335;22;20000;-74
2021/01/18 03:54:11;;;;;;;9.65;4.93;;;;;;;;;;6303760;22;19999;-74
2021/01/18 03:56:38;;;;;;;13.20;5.50;;;;;;;;;;6304107;22;20003;-74
2021/01/18 03:59:04;;;;;;;13.18;5.63;;;;;;;;;;6276571;22;20016;-74
2021/01/18 04:01:31;;;;;;;13.73;5.93;;;;;;;;;;6303770;22;19999;-75
2021/01/18 04:03:56;;;;;;;12.85;5.55;;;;;;;;;;6300837;22;19995;-74
2021/01/18 04:06:22;;;;;;;15.40;6.35;;;;;;;;;;6301321;22;20006;-75
2021/01/18 04:08:48;;;;;;;14.55;6.68;;;;;;;;;;6301374;22;19999;-75
2021/01/18 04:11:14;;;;;;;14.50;7.63;;;;;;;;;;6299529;22;20077;-73
2021/01/18 04:13:40;;;;;;;15.50;5.70;;;;;;;;;;6300184;22;20845;-75
2021/01/18 04:16:07;;;;;;;10.45;5.07;;;;;;;;;;6300412;22;19999;-74
2021/01/18 04:18:32;;;;;;;14.05;5.32;;;;;;;;;;6272816;22;20011;-74
2021/01/18 04:20:58;;;;;;;16.77;6.15;;;;;;;;;;6299317;22;19999;-75
2021/01/18 04:23:24;;;;;;;10.60;4.97;;;;;;;;;;6300103;22;20074;-74
2021/01/18 04:25:50;;;;;;;13.02;5.90;;;;;;;;;;6299948;22;20087;-75
2021/01/18 04:28:16;;;;;;;12.93;5.43;;;;;;;;;;6299941;22;20000;-74
2021/01/18 04:30:42;;;;;;;13.40;5.60;;;;;;;;;;6272530;22;20451;-75
2021/01/18 04:33:09;;;;;;;13.27;5.78;;;;;;;;;;6299716;22;20007;-75
2021/01/18 04:35:36;;;;;;;17.20;5.60;;;;;;;;;;6300211;22;20332;-74
2021/01/18 04:38:03;;;;;;;10.85;5.95;;;;;;;;;;6300124;22;20052;-74
2021/01/18 04:40:30;;;;;;;20.52;5.68;;;;;;;;;;6300297;22;20066;-74
2021/01/18 04:42:56;;;;;;;18.13;5.85;;;;;;;;;;6272260;22;19995;-75
2021/01/18 04:45:23;;;;;;;11.32;5.10;;;;;;;;;;6300205;22;20008;-74
2021/01/18 04:47:50;;;;;;;10.77;5.28;;;;;;;;;;6299964;22;20351;-74
2021/01/18 04:50:17;;;;;;;11.45;5.40;;;;;;;;;;6300349;22;20004;-75
2021/01/18 04:52:46;;;;;;;14.30;4.95;;;;;;;;;;6300026;22;19999;-74
2021/01/18 04:55:28;;;;;;;11.25;5.00;;;;;;;;;;6273223;22;20011;-75
2021/01/18 04:58:01;;;;;;;12.57;5.13;;;;;;;;;;6300256;22;19999;-74
2021/01/18 05:00:30;;;;;;;11.80;5.25;;;;;;;;;;6299754;22;19995;-75
2021/01/18 05:03:00;;;;;;;15.70;5.40;;;;;;;;;;6299640;22;19999;-74
2021/01/18 05:05:30;;;;;;;10.93;5.60;;;;;;;;;;6273313;22;20010;-75
2021/01/18 05:08:04;;;;;;;15.27;5.90;;;;;;;;;;6272467;22;20368;-74
2021/01/18 05:10:31;;;;;;;14.10;5.95;;;;;;;;;;6300221;22;20061;-74
2021/01/18 05:12:58;;;;;;;12.35;6.18;;;;;;;;;;6299091;22;20494;-74
2021/01/18 05:15:25;;;;;;;14.37;6.97;;;;;;;;;;6272673;22;20003;-74
2021/01/18 05:17:56;;;;;;;16.70;7.65;;;;;;;;;;6300089;22;20222;-74
2021/01/18 05:20:22;;;;;;;15.25;5.72;;;;;;;;;;6300112;22;20003;-76
2021/01/18 05:22:52;;;;;;;11.93;5.50;;;;;;;;;;6299388;22;20010;-76
2021/01/18 05:25:19;;;;;;;11.07;5.55;;;;;;;;;;6300367;22;20463;-75
2021/01/18 05:27:57;;;;;;;14.93;5.53;;;;;;;;;;6300362;22;20428;-74
2021/01/18 05:30:24;;;;;;;14.57;5.47;;;;;;;;;;6300056;22;20003;-73
2021/01/18 05:33:00;;;;;;;13.93;5.80;;;;;;;;;;6272274;22;20015;-74
2021/01/18 05:35:26;;;;;;;13.15;5.63;;;;;;;;;;6300008;22;20003;-75
2021/01/18 05:38:03;;;;;;;13.18;5.60;;;;;;;;;;6300101;22;20082;-76
2021/01/18 05:40:34;;;;;;;10.10;5.55;;;;;;;;;;6301078;22;20065;-77
2021/01/18 05:43:03;;;;;;;15.68;5.45;;;;;;;;;;6300789;22;20007;-74
2021/01/18 05:45:30;;;;;;;13.90;5.07;;;;;;;;;;6301928;22;20453;-74
2021/01/18 05:47:57;;;;;;;12.70;5.78;;;;;;;;;;6301720;22;20066;-74
2021/01/18 05:50:24;;;;;;;14.68;5.88;;;;;;;;;;6274540;22;20008;-74
2021/01/18 05:52:50;;;;;;;12.50;5.82;;;;;;;;;;6273609;22;20344;-73
2021/01/18 05:55:20;;;;;;;14.95;5.97;;;;;;;;;;6301813;22;20006;-74
2021/01/18 05:57:47;;;;;;;10.57;5.70;;;;;;;;;;6302087;22;20528;-74
2021/01/18 06:00:14;;;;;;;12.40;5.57;;;;;;;;;;6301502;22;20007;-75
2021/01/18 06:02:47;;;;;;;11.10;5.83;;;;;;;;;;6301323;22;20280;-73
2021/01/18 06:05:14;;;;;;;13.50;6.20;;;;;;;;;;6301894;22;20003;-74
2021/01/18 06:07:40;;;;;;;16.13;7.72;;;;;;;;;;6302014;22;20007;-75
2021/01/18 06:10:06;;;;;;;27.45;11.55;;;;;;;;;;6301875;22;20003;-74
2021/01/18 06:12:33;;;;;;;25.27;12.48;;;;;;;;;;6300875;22;20069;-75
2021/01/18 06:15:05;;;;;;;30.85;12.90;;;;;;;;;;6301990;22;20474;-74
2021/01/18 06:17:32;;;;;;;31.92;14.90;;;;;;;;;;6274298;22;20406;-75
2021/01/18 06:20:01;;;;;;;28.48;12.93;;;;;;;;;;6274294;22;20090;-74
2021/01/18 06:22:28;;;;;;;21.48;10.57;;;;;;;;;;6300849;22;20033;-74
2021/01/18 06:24:56;;;;;;;28.45;10.25;;;;;;;;;;6274091;22;20540;-74
2021/01/18 06:27:31;;;;;;;25.65;10.35;;;;;;;;;;6274129;22;20064;-74
2021/01/18 06:29:57;;;;;;;29.48;12.32;;;;;;;;;;6301523;22;20003;-74
2021/01/18 06:32:28;;;;;;;33.63;13.20;;;;;;;;;;6273525;22;20096;-74
2021/01/18 06:35:01;;;;;;;41.50;15.65;;;;;;;;;;6273999;22;19999;-75
2021/01/18 06:37:34;;;;;;;33.83;16.20;;;;;;;;;;6301642;22;19999;-75
2021/01/18 06:40:01;;;;;;;30.77;16.58;;;;;;;;;;6274156;22;20014;-74
2021/01/18 06:42:28;;;;;;;31.70;15.38;;;;;;;;;;6273254;22;20027;-73
2021/01/18 06:44:54;;;;;;;26.02;13.98;;;;;;;;;;6301598;22;19996;-74
2021/01/18 06:47:23;;;;;;;18.25;9.48;;;;;;;;;;6301340;22;20078;-73
2021/01/18 06:49:59;;;;;;;19.42;8.65;;;;;;;;;;6301266;22;20004;-74
2021/01/18 06:52:27;;;;;;;19.13;7.53;;;;;;;;;;6300218;22;20027;-74
2021/01/18 06:54:59;;;;;;;14.38;6.95;;;;;;;;;;6273961;22;20432;-74
2021/01/18 06:57:32;;;;;;;15.65;6.75;;;;;;;;;;6301870;22;20003;-74
2021/01/18 06:59:58;;;;;;;17.00;6.50;;;;;;;;;;6301446;22;20452;-75
2021/01/18 07:02:31;;;;;;;18.02;7.13;;;;;;;;;;6300931;22;19995;-74
2021/01/18 07:05:06;;;;;;;17.27;6.72;;;;;;;;;;6273703;22;20451;-74
2021/01/18 07:07:33;;;;;;;11.60;5.07;;;;;;;;;;6301484;22;20006;-74
2021/01/18 07:10:00;;;;;;;15.68;7.25;;;;;;;;;;6301498;22;20074;-74
2021/01/18 07:12:27;;;;;;;15.50;6.35;;;;;;;;;;6300382;22;20006;-74
2021/01/18 07:15:01;;;;;;;16.30;6.70;;;;;;;;;;6273756;22;20089;-74
2021/01/18 07:17:30;;;;;;;13.43;5.57;;;;;;;;;;6301290;22;19999;-75
2021/01/18 07:19:59;;;;;;;19.00;6.72;;;;;;;;;;6301238;22;20074;-75
2021/01/18 07:22:36;;;;;;;12.90;5.72;;;;;;;;;;6273339;22;20025;-74
2021/01/18 07:25:03;;;;;;;17.98;8.00;;;;;;;;;;6273891;22;20094;-74
2021/01/18 07:27:35;;;;;;;36.63;9.38;;;;;;;;;;6301169;22;20590;-74
2021/01/18 07:30:01;;;;;;;24.50;7.85;;;;;;;;;;6273534;22;20003;-75
2021/01/18 07:32:27;;;;;;;16.42;6.05;;;;;;;;;;6300676;22;20011;-74
2021/01/18 07:34:53;;;;;;;15.00;5.53;;;;;;;;;;6300642;22;20003;-74
2021/01/18 07:37:21;;;;;;;13.38;5.97;;;;;;;;;;6301325;22;20772;-74
2021/01/18 07:39:47;;;;;;;11.55;5.45;;;;;;;;;;6272676;22;20003;-74
2021/01/18 07:42:29;;;;;;;10.23;4.80;;;;;;;;;;6272002;22;20006;-75
2021/01/18 07:45:13;;;;;;;11.68;5.30;;;;;;;;;;6301184;22;19996;-75
2021/01/18 07:48:09;;;;;;;8.98;4.35;;;;;;;;;;6300910;22;20003;-74
2021/01/18 07:50:36;;;;;;;8.70;4.07;;;;;;;;;;6241908;22;20010;-73
2021/01/18 07:53:06;;;;;;;14.95;4.00;;;;;;;;;;6300247;22;20006;-74
2021/01/18 07:55:32;;;;;;;10.05;3.80;;;;;;;;;;6273646;22;20009;-73
2021/01/18 07:58:13;;;;;;;11.50;4.10;;;;;;;;;;6273455;22;20428;-74
2021/01/18 08:00:39;;;;;;;10.40;4.53;;;;;;;;;;6300958;22;20014;-74
2021/01/18 08:03:08;;;;;;;7.50;3.80;;;;;;;;;;6299621;22;20030;-74
2021/01/18 08:05:36;;;;;;;8.05;4.20;;;;;;;;;;6300724;22;20054;-73
2021/01/18 08:08:04;;;;;;;10.65;4.75;;;;;;;;;;6301037;22;20825;-74
2021/01/18 08:10:48;;;;;;;11.65;4.10;;;;;;;;;;6300922;22;20003;-74
2021/01/18 08:13:47;;;;;;;8.52;4.07;;;;;;;;;;6273281;22;20007;-75
2021/01/18 08:16:20;;;;;;;8.88;3.95;;;;;;;;;;6216727;22;20003;-75
2021/01/18 08:18:50;;;;;;;7.45;3.70;;;;;;;;;;6301023;22;20007;-75
2021/01/18 08:21:35;;;;;;;11.70;4.07;;;;;;;;;;6272564;22;20336;-75
2021/01/18 08:24:04;;;;;;;6.72;3.20;;;;;;;;;;6273475;22;20507;-74
2021/01/18 08:26:49;;;;;;;8.50;3.55;;;;;;;;;;6300898;22;20034;-74
2021/01/18 08:29:34;;;;;;;7.30;3.55;;;;;;;;;;6300646;22;20074;-75
2021/01/18 08:32:18;;;;;;;8.30;3.80;;;;;;;;;;6300014;22;20089;-74
2021/01/18 08:34:45;;;;;;;8.90;3.38;;;;;;;;;;6300445;22;19999;-75
2021/01/18 08:37:12;;;;;;;9.48;3.28;;;;;;;;;;6300669;22;20010;-75
2021/01/18 08:39:39;;;;;;;7.53;3.40;;;;;;;;;;6300772;22;20314;-76
2021/01/18 08:42:05;;;;;;;8.52;3.90;;;;;;;;;;6300233;22;19999;-75
2021/01/18 08:44:31;;;;;;;11.50;4.05;;;;;;;;;;6273655;22;20003;-74
2021/01/18 08:46:57;;;;;;;12.57;4.45;;;;;;;;;;6300371;22;19995;-75
2021/01/18 08:49:24;;;;;;;8.80;4.10;;;;;;;;;;6273421;22;20086;-76
2021/01/18 08:51:51;;;;;;;9.30;4.22;;;;;;;;;;6300872;22;20340;-76
2021/01/18 08:54:30;;;;;;;10.00;4.10;;;;;;;;;;6301066;22;20003;-76
2021/01/18 08:57:14;;;;;;;12.88;4.30;;;;;;;;;;6301029;22;20010;-74
2021/01/18 08:59:40;;;;;;;7.82;4.03;;;;;;;;;;6300580;22;20070;-75
2021/01/18 09:02:06;;;;;;;10.38;4.43;;;;;;;;;;6299580;22;19995;-75
2021/01/18 09:04:33;;;;;;;12.13;4.55;;;;;;;;;;6300911;22;20010;-76
2021/01/18 09:07:02;;;;;;;11.40;4.70;;;;;;;;;;6301191;22;20732;-76
2021/01/18 09:09:29;;;;;;;12.20;4.40;;;;;;;;;;6301001;22;20006;-76
2021/01/18 09:12:02;;;;;;;12.32;4.30;;;;;;;;;;6300139;22;19999;-75
2021/01/18 09:14:30;;;;;;;11.32;4.38;;;;;;;;;;6301105;22;20007;-75
2021/01/18 09:17:06;;;;;;;10.77;4.68;;;;;;;;;;6303008;22;19999;-75
2021/01/18 09:19:32;;;;;;;11.82;4.65;;;;;;;;;;6298028;22;20003;-75
2021/01/18 09:21:59;;;;;;;18.80;5.35;;;;;;;;;;6274494;22;20002;-74
2021/01/18 09:24:26;;;;;;;12.90;5.15;;;;;;;;;;6274968;22;20031;-74
2021/01/18 09:26:53;;;;;;;10.13;4.57;;;;;;;;;;6275114;22;20009;-75
2021/01/18 09:29:22;;;;;;;10.60;4.95;;;;;;;;;;6303272;22;20073;-75
2021/01/18 09:31:49;;;;;;;11.07;5.00;;;;;;;;;;6301651;22;20011;-74
2021/01/18 09:34:16;;;;;;;14.23;5.75;;;;;;;;;;6274402;22;20042;-75
2021/01/18 09:36:43;;;;;;;13.77;4.93;;;;;;;;;;6274671;22;20014;-75
2021/01/18 09:39:21;;;;;;;10.32;5.05;;;;;;;;;;6301966;22;20030;-74
2021/01/18 09:41:47;;;;;;;13.45;5.30;;;;;;;;;;6300611;22;19999;-75
2021/01/18 09:44:13;;;;;;;9.23;4.90;;;;;;;;;;6302276;22;20023;-75
2021/01/18 09:46:41;;;;;;;11.60;4.43;;;;;;;;;;6274669;22;20027;-75
2021/01/18 09:49:07;;;;;;;12.43;5.07;;;;;;;;;;6273978;22;20060;-75
2021/01/18 09:51:33;;;;;;;8.95;4.93;;;;;;;;;;6301502;22;20007;-75
2021/01/18 09:53:59;;;;;;;12.95;5.55;;;;;;;;;;6301994;22;20057;-75
2021/01/18 09:56:27;;;;;;;9.45;5.43;;;;;;;;;;6302101;22;20003;-75
2021/01/18 09:58:58;;;;;;;9.05;4.72;;;;;;;;;;6274601;22;20078;-78
2021/01/18 10:01:33;;;;;;;11.05;5.45;;;;;;;;;;6273743;22;20103;-75
2021/01/18 10:04:00;;;;;;;12.27;5.95;;;;;;;;;;6301138;22;20088;-75
2021/01/18 10:06:28;;;;;;;10.52;5.00;;;;;;;;;;6302237;22;19999;-76
2021/01/18 10:09:08;;;;;;;10.32;4.95;;;;;;;;;;6301929;22;20309;-76
2021/01/18 10:11:44;;;;;;;13.55;4.97;;;;;;;;;;6300884;22;20049;-75
2021/01/18 10:14:23;;;;;;;12.95;4.90;;;;;;;;;;6274376;22;20111;-76
2021/01/18 10:17:03;;;;;;;11.35;4.75;;;;;;;;;;6301947;22;20003;-76
2021/01/18 10:19:30;;;;;;;11.05;5.10;;;;;;;;;;6273349;22;20095;-75
2021/01/18 10:21:56;;;;;;;8.23;4.68;;;;;;;;;;6273652;22;20026;-75
2021/01/18 10:24:29;;;;;;;11.90;4.88;;;;;;;;;;6274894;22;20098;-75
2021/01/18 10:27:03;;;;;;;10.57;4.97;;;;;;;;;;6273848;22;20443;-74
2021/01/18 10:29:29;;;;;;;12.68;4.63;;;;;;;;;;6274852;22;20030;-74
2021/01/18 10:31:55;;;;;;;9.80;4.57;;;;;;;;;;6273756;22;20011;-75
2021/01/18 10:34:22;;;;;;;10.55;4.63;;;;;;;;;;6301215;22;20317;-75
2021/01/18 10:36:49;;;;;;;10.70;4.55;;;;;;;;;;6301666;22;20435;-74
2021/01/18 10:39:28;;;;;;;9.32;4.53;;;;;;;;;;6274206;22;20636;-73
2021/01/18 10:42:02;;;;;;;10.55;4.57;;;;;;;;;;6300505;22;20005;-75
2021/01/18 10:44:28;;;;;;;9.60;4.40;;;;;;;;;;6301927;22;20002;-75
2021/01/18 10:46:54;;;;;;;10.15;4.38;;;;;;;;;;6301662;22;19996;-75
2021/01/18 10:49:29;;;;;;;9.73;4.53;;;;;;;;;;6301004;22;20025;-75
2021/01/18 10:52:08;;;;;;;11.30;4.05;;;;;;;;;;6273002;22;20012;-75
2021/01/18 10:54:34;;;;;;;10.90;4.53;;;;;;;;;;6273964;22;20003;-75
2021/01/18 10:57:00;;;;;;;9.32;4.35;;;;;;;;;;6300593;22;20440;-75
2021/01/18 10:59:27;;;;;;;7.47;4.45;;;;;;;;;;6299832;22;19995;-75
2021/01/18 11:01:59;;;;;;;8.57;3.97;;;;;;;;;;6298534;22;20000;-75
2021/01/18 11:04:25;;;;;;;7.18;4.10;;;;;;;;;;6272541;22;20003;-75
2021/01/18 11:06:52;;;;;;;8.32;4.05;;;;;;;;;;6301516;22;20515;-76
2021/01/18 11:09:26;;;;;;;8.20;4.10;;;;;;;;;;6301558;22;20045;-75
2021/01/18 11:11:52;;;;;;;12.95;5.13;;;;;;;;;;6300986;22;20003;-75
2021/01/18 11:14:18;;;;;;;9.93;5.10;;;;;;;;;;6301349;22;19999;-75
2021/01/18 11:16:55;;;;;;;11.32;4.43;;;;;;;;;;6301497;22;20064;-75
2021/01/18 11:19:23;;;;;;;9.20;4.85;;;;;;;;;;6274193;22;20078;-76
2021/01/18 11:21:49;;;;;;;9.73;4.85;;;;;;;;;;6300921;22;20348;-76
2021/01/18 11:24:15;;;;;;;7.90;4.40;;;;;;;;;;6273917;22;19999;-75
2021/01/18 11:26:41;;;;;;;7.15;4.35;;;;;;;;;;6300592;22;20567;-75
2021/01/18 11:29:07;;;;;;;10.63;4.10;;;;;;;;;;6301343;22;20013;-75
2021/01/18 11:31:33;;;;;;;9.15;4.40;;;;;;;;;;6272914;22;20030;-76
2021/01/18 11:33:59;;;;;;;6.90;3.78;;;;;;;;;;6301548;22;20086;-75
2021/01/18 11:36:25;;;;;;;7.93;4.43;;;;;;;;;;6273689;22;20436;-74
2021/01/18 11:38:52;;;;;;;6.47;3.53;;;;;;;;;;6301154;22;20022;-74
2021/01/18 11:41:18;;;;;;;6.65;3.83;;;;;;;;;;6300942;22;20380;-76
2021/01/18 11:43:43;;;;;;;11.07;4.35;;;;;;;;;;6301417;22;20034;-75
2021/01/18 11:46:15;;;;;;;7.93;4.57;;;;;;;;;;6274210;22;20003;-75
2021/01/18 11:48:41;;;;;;;9.70;4.50;;;;;;;;;;6301218;22;20003;-75
2021/01/18 11:51:07;;;;;;;7.13;4.35;;;;;;;;;;6273040;22;19999;-74
2021/01/18 11:53:33;;;;;;;6.28;3.88;;;;;;;;;;6301124;22;20003;-75
2021/01/18 11:55:59;;;;;;;6.35;3.90;;;;;;;;;;6273662;22;20060;-75
2021/01/18 11:58:25;;;;;;;8.18;4.13;;;;;;;;;;6273756;22;19999;-75
2021/01/18 12:00:51;;;;;;;8.70;3.92;;;;;;;;;;6299699;22;20000;-75
2021/01/18 12:03:17;;;;;;;7.38;3.95;;;;;;;;;;6300964;22;20298;-75
2021/01/18 12:05:43;;;;;;;9.88;4.10;;;;;;;;;;6273159;22;20003;-75
2021/01/18 12:08:09;;;;;;;10.55;3.97;;;;;;;;;;6272727;22;20370;-75
2021/01/18 12:10:36;;;;;;;8.23;4.07;;;;;;;;;;6300273;22;20011;-75
2021/01/18 12:13:06;;;;;;;6.57;4.25;;;;;;;;;;6272667;22;20010;-76
2021/01/18 12:15:33;;;;;;;6.00;3.65;;;;;;;;;;6300870;22;20007;-76
2021/01/18 12:17:59;;;;;;;12.48;4.10;;;;;;;;;;6301112;22;20003;-75
2021/01/18 12:20:26;;;;;;;9.15;4.40;;;;;;;;;;6273648;22;20637;-75
2021/01/18 12:22:53;;;;;;;6.93;3.72;;;;;;;;;;6272687;22;20485;-75
2021/01/18 12:25:19;;;;;;;8.52;4.32;;;;;;;;;;6300684;22;20000;-74
2021/01/18 12:27:49;;;;;;;8.88;3.90;;;;;;;;;;6301328;22;20003;-75
2021/01/18 12:30:15;;;;;;;9.68;4.20;;;;;;;;;;6273786;22;19999;-75
2021/01/18 12:32:41;;;;;;;7.90;4.03;;;;;;;;;;6272996;22;20014;-75
2021/01/18 12:35:08;;;;;;;8.63;3.72;;;;;;;;;;6273565;22;20030;-75
2021/01/18 12:37:34;;;;;;;12.07;3.90;;;;;;;;;;6273208;22;20003;-76
2021/01/18 12:40:00;;;;;;;7.45;3.75;;;;;;;;;;6273363;22;20027;-74
2021/01/18 12:42:26;;;;;;;6.03;3.03;;;;;;;;;;6300484;22;20000;-76
2021/01/18 12:44:52;;;;;;;7.18;2.53;;;;;;;;;;6301239;22;20027;-75
2021/01/18 12:47:18;;;;;;;5.47;2.50;;;;;;;;;;6273290;22;20038;-75
2021/01/18 12:49:44;;;;;;;10.98;2.80;;;;;;;;;;6301158;22;20078;-75
2021/01/18 12:52:10;;;;;;;7.97;3.10;;;;;;;;;;6301782;22;20006;-75
2021/01/18 12:54:36;;;;;;;6.38;2.78;;;;;;;;;;6275127;22;20007;-75
2021/01/18 12:57:03;;;;;;;6.88;2.53;;;;;;;;;;6302337;22;20161;-75
2021/01/18 12:59:29;;;;;;;8.88;2.78;;;;;;;;;;6302090;22;20003;-75
2021/01/18 13:01:55;;;;;;;9.93;3.10;;;;;;;;;;6301564;22;20007;-76
2021/01/18 13:04:21;;;;;;;8.98;2.60;;;;;;;;;;6302265;22;20428;-75
2021/01/18 13:06:47;;;;;;;7.85;2.95;;;;;;;;;;6302127;22;20864;-75
2021/01/18 13:09:14;;;;;;;8.85;2.75;;;;;;;;;;6302169;22;20003;-75
2021/01/18 13:11:48;;;;;;;7.57;2.88;;;;;;;;;;6273842;22;20086;-75
2021/01/18 13:14:14;;;;;;;7.10;2.60;;;;;;;;;;6301712;22;20009;-75
2021/01/18 13:16:41;;;;;;;8.18;2.80;;;;;;;;;;6301884;22;20506;-75
2021/01/18 13:19:07;;;;;;;8.20;3.30;;;;;;;;;;6301779;22;20082;-75
2021/01/18 13:21:33;;;;;;;9.52;3.40;;;;;;;;;;6301286;22;20014;-75
2021/01/18 13:23:59;;;;;;;9.15;3.78;;;;;;;;;;6274024;22;20431;-75
2021/01/18 13:26:25;;;;;;;9.15;3.13;;;;;;;;;;6301939;22;20443;-76
2021/01/18 13:28:52;;;;;;;8.60;3.10;;;;;;;;;;6301692;22;20005;-75
2021/01/18 13:31:19;;;;;;;7.80;2.92;;;;;;;;;;6300960;22;20006;-76
2021/01/18 13:33:48;;;;;;;13.10;4.68;;;;;;;;;;6301319;22;20049;-76
2021/01/18 13:36:18;;;;;;;8.02;2.97;;;;;;;;;;6301592;22;20716;-75
2021/01/18 13:38:44;;;;;;;11.23;3.67;;;;;;;;;;6274154;22;20370;-76
2021/01/18 13:41:14;;;;;;;10.05;3.78;;;;;;;;;;6300588;22;20007;-75
2021/01/18 13:43:40;;;;;;;9.52;3.45;;;;;;;;;;6301624;22;19999;-75
2021/01/18 13:46:09;;;;;;;7.95;2.60;;;;;;;;;;6273940;22;20086;-75
2021/01/18 13:48:36;;;;;;;9.88;2.67;;;;;;;;;;6301798;22;20026;-75
2021/01/18 13:51:02;;;;;;;6.82;2.90;;;;;;;;;;6300743;22;20344;-75
2021/01/18 13:53:28;;;;;;;8.13;3.10;;;;;;;;;;6273655;22;19999;-75
2021/01/18 13:55:53;;;;;;;8.77;3.33;;;;;;;;;;6301405;22;20003;-74
2021/01/18 13:58:19;;;;;;;5.95;2.40;;;;;;;;;;6272245;22;20011;-74
2021/01/18 14:00:45;;;;;;;8.55;2.97;;;;;;;;;;6299881;22;20003;-75
2021/01/18 14:03:11;;;;;;;12.85;4.40;;;;;;;;;;6298805;22;20343;-75
2021/01/18 14:05:40;;;;;;;12.43;3.70;;;;;;;;;;6273653;22;20007;-74
2021/01/18 14:08:06;;;;;;;12.07;3.20;;;;;;;;;;6301472;22;20005;-75
2021/01/18 14:10:32;;;;;;;9.27;2.47;;;;;;;;;;6273651;22;20007;-74
2021/01/18 14:12:58;;;;;;;11.65;3.13;;;;;;;;;;6300783;22;20007;-75
2021/01/18 14:15:24;;;;;;;8.50;2.97;;;;;;;;;;6296659;22;20003;-75
2021/01/18 14:17:50;;;;;;;8.98;3.15;;;;;;;;;;6300870;22;20007;-75
2021/01/18 14:20:16;;;;;;;8.40;3.35;;;;;;;;;;6273064;22;20577;-75
2021/01/18 14:22:43;;;;;;;10.43;4.60;;;;;;;;;;6272329;22;20003;-74
2021/01/18 14:25:10;;;;;;;8.25;2.88;;;;;;;;;;6273410;22;20088;-75
2021/01/18 14:27:37;;;;;;;7.18;2.88;;;;;;;;;;6300358;22;20022;-75
2021/01/18 14:30:04;;;;;;;6.45;2.75;;;;;;;;;;6300513;22;20078;-76
2021/01/18 14:32:30;;;;;;;10.80;2.33;;;;;;;;;;6272632;22;20098;-75
2021/01/18 14:34:56;;;;;;;8.38;2.85;;;;;;;;;;6301001;22;20010;-74
2021/01/18 14:37:22;;;;;;;9.75;2.67;;;;;;;;;;6273093;22;20007;-74
2021/01/18 14:39:48;;;;;;;9.35;2.97;;;;;;;;;;6272973;22;20014;-75
2021/01/18 14:42:14;;;;;;;7.20;2.78;;;;;;;;;;6300411;22;20424;-75
2021/01/18 14:44:40;;;;;;;7.43;2.83;;;;;;;;;;6300599;22;19999;-75